Time;durP1;ratioP1;P1;durP2;ratioP2;P2;SDS_P1;SDS_P2;PMS_P1;PMS_P2;Temp;Humidity;BMP_temperature;BMP_pressure;BME280_temperature;BME280_humidity;BME280_pressure;Samples;Min_cycle;Max_cycle;Signal;HPM_P1;HPM_P2
2023/09/15 00:01:41;;;;;;;0.10;0.10;;;11.50;99.90;;;;;;5051109;28;20037;-74
2023/09/15 00:04:07;;;;;;;2.83;1.27;;;11.50;99.90;;;;;;5035002;28;20041;-73
2023/09/15 00:06:37;;;;;;;0.45;0.45;;;11.50;99.90;;;;;;5045033;28;20041;-74
2023/09/15 00:09:06;;;;;;;0.30;0.30;;;11.50;99.90;;;;;;5036361;28;20051;-73
2023/09/15 00:11:42;;;;;;;0.10;0.10;;;11.50;99.90;;;;;;5046792;28;20040;-74
2023/09/15 00:14:13;;;;;;;0.20;0.20;;;11.50;99.90;;;;;;5043052;28;20089;-74
2023/09/15 00:16:39;;;;;;;1.45;0.95;;;11.50;99.90;;;;;;5046345;28;20048;-74
2023/09/15 00:19:06;;;;;;;0.00;0.00;;;11.50;99.90;;;;;;5095998;28;20040;-74
2023/09/15 00:21:33;;;;;;;0.10;0.10;;;11.50;99.90;;;;;;5042873;28;20491;-74
2023/09/15 00:24:02;;;;;;;0.70;0.40;;;11.40;99.90;;;;;;5046843;28;20045;-74
2023/09/15 00:26:31;;;;;;;0.30;0.30;;;11.40;99.90;;;;;;5041369;28;20555;-74
2023/09/15 00:28:56;;;;;;;0.10;0.10;;;11.40;99.90;;;;;;5081780;28;20044;-74
2023/09/15 00:31:23;;;;;;;0.20;0.10;;;11.40;99.90;;;;;;5050246;28;20033;-74
2023/09/15 00:33:49;;;;;;;0.05;0.05;;;11.40;99.90;;;;;;5043959;28;20480;-74
2023/09/15 00:36:15;;;;;;;0.35;0.10;;;11.40;99.90;;;;;;5040895;28;20044;-74
2023/09/15 00:38:40;;;;;;;0.38;0.38;;;11.40;99.90;;;;;;5052480;28;20047;-74
2023/09/15 00:41:06;;;;;;;0.10;0.10;;;11.40;99.90;;;;;;5046073;28;20052;-74
2023/09/15 00:43:31;;;;;;;2.47;0.30;;;11.40;99.90;;;;;;5067356;28;20040;-74
2023/09/15 00:45:57;;;;;;;0.55;0.55;;;11.30;99.90;;;;;;5047898;28;20444;-74
2023/09/15 00:48:23;;;;;;;0.17;0.17;;;11.30;99.90;;;;;;5048227;28;20604;-74
2023/09/15 00:50:48;;;;;;;0.63;0.40;;;11.30;99.90;;;;;;5040405;28;20451;-73
2023/09/15 00:53:19;;;;;;;0.52;0.30;;;11.30;99.90;;;;;;5063787;28;20498;-74
2023/09/15 00:55:46;;;;;;;1.13;0.17;;;11.30;99.90;;;;;;5054751;28;20040;-73
2023/09/15 00:58:13;;;;;;;0.20;0.20;;;11.30;99.90;;;;;;5046585;28;20033;-74
2023/09/15 01:00:43;;;;;;;0.35;0.20;;;11.30;99.90;;;;;;5040298;28;20037;-74
2023/09/15 01:03:17;;;;;;;0.05;0.05;;;11.20;99.90;;;;;;5042453;28;20064;-73
2023/09/15 01:05:45;;;;;;;0.20;0.20;;;11.20;99.90;;;;;;5067995;28;20037;-74
2023/09/15 01:08:11;;;;;;;0.32;0.28;;;11.20;99.90;;;;;;5047093;28;20087;-74
2023/09/15 01:10:37;;;;;;;0.10;0.10;;;11.20;99.90;;;;;;5046321;28;20068;-74
2023/09/15 01:13:04;;;;;;;1.05;0.65;;;11.20;99.90;;;;;;5051142;28;20210;-74
2023/09/15 01:15:32;;;;;;;0.15;0.15;;;11.10;99.90;;;;;;5056736;28;20049;-74
2023/09/15 01:18:41;;;;;;;0.70;0.57;;;11.10;99.90;;;;;;5043779;28;20499;-74
2023/09/15 01:21:39;;;;;;;0.10;0.10;;;11.10;99.90;;;;;;5015626;28;20040;-74
2023/09/15 01:24:25;;;;;;;0.20;0.10;;;11.10;99.90;;;;;;4990277;28;20500;-73
2023/09/15 01:27:13;;;;;;;0.22;0.20;;;11.10;99.90;;;;;;5040536;28;20485;-73
2023/09/15 01:29:46;;;;;;;0.20;0.20;;;11.10;99.90;;;;;;5052036;28;20558;-74
2023/09/15 01:32:14;;;;;;;0.10;0.10;;;11.00;99.90;;;;;;5031533;28;20135;-74
2023/09/15 01:34:50;;;;;;;0.30;0.30;;;11.10;99.90;;;;;;5041997;28;20391;-73
2023/09/15 01:37:16;;;;;;;0.10;0.10;;;11.00;99.90;;;;;;5046676;28;20037;-74
2023/09/15 01:39:42;;;;;;;0.35;0.30;;;11.00;99.90;;;;;;5044400;28;20484;-74
2023/09/15 01:42:08;;;;;;;0.10;0.10;;;11.00;99.90;;;;;;5057811;28;20067;-73
2023/09/15 01:44:33;;;;;;;0.52;0.43;;;11.00;99.90;;;;;;5061354;28;20563;-73
2023/09/15 01:46:59;;;;;;;0.55;0.55;;;11.00;99.90;;;;;;5045765;28;20038;-73
2023/09/15 01:49:26;;;;;;;0.00;0.00;;;11.10;99.90;;;;;;5044533;28;20042;-73
2023/09/15 01:51:52;;;;;;;0.20;0.20;;;11.00;99.90;;;;;;5041309;28;20544;-74
2023/09/15 01:54:18;;;;;;;0.13;0.13;;;11.00;99.90;;;;;;5041520;28;20092;-74
2023/09/15 01:56:45;;;;;;;0.30;0.30;;;11.00;99.90;;;;;;5039920;28;20068;-74
2023/09/15 01:59:12;;;;;;;0.25;0.20;;;11.00;99.90;;;;;;5045936;28;20092;-73
2023/09/15 02:01:37;;;;;;;0.10;0.10;;;11.00;99.90;;;;;;5044750;28;20569;-73
2023/09/15 02:04:04;;;;;;;0.20;0.20;;;10.90;99.90;;;;;;5049386;28;20048;-74
2023/09/15 02:06:30;;;;;;;0.80;0.43;;;10.90;99.90;;;;;;5043242;28;20069;-73
2023/09/15 02:08:56;;;;;;;0.00;0.00;;;11.00;99.90;;;;;;5049829;28;20079;-73
2023/09/15 02:11:22;;;;;;;1.45;0.17;;;10.90;99.90;;;;;;5045731;28;20093;-73
2023/09/15 02:13:48;;;;;;;1.05;0.40;;;10.90;99.90;;;;;;5050694;28;20044;-73
2023/09/15 02:16:13;;;;;;;0.20;0.20;;;10.90;99.90;;;;;;5046520;28;20041;-74
2023/09/15 02:18:40;;;;;;;0.40;0.40;;;10.90;99.90;;;;;;5047718;28;20045;-74
2023/09/15 02:21:06;;;;;;;0.10;0.10;;;10.90;99.90;;;;;;5044468;28;20048;-73
2023/09/15 02:23:32;;;;;;;3.25;0.75;;;10.90;99.90;;;;;;5044448;28;20369;-73
2023/09/15 02:26:02;;;;;;;0.25;0.25;;;10.80;99.90;;;;;;5047084;28;20075;-73
2023/09/15 02:28:28;;;;;;;0.43;0.30;;;10.80;99.90;;;;;;5041095;28;20040;-73
2023/09/15 02:30:55;;;;;;;0.20;0.17;;;10.80;99.90;;;;;;5025033;28;20391;-73
2023/09/15 02:33:22;;;;;;;0.20;0.20;;;10.80;99.90;;;;;;5046087;28;20040;-73
2023/09/15 02:35:48;;;;;;;0.47;0.20;;;10.80;99.90;;;;;;5050766;28;20037;-73
2023/09/15 02:38:14;;;;;;;0.30;0.30;;;10.80;99.90;;;;;;5025335;28;20067;-73
2023/09/15 02:40:39;;;;;;;0.15;0.15;;;10.80;99.90;;;;;;5042802;28;20033;-73
2023/09/15 02:43:05;;;;;;;1.00;0.30;;;10.70;99.90;;;;;;5045241;28;20437;-74
2023/09/15 02:45:35;;;;;;;0.17;0.17;;;10.70;99.90;;;;;;5032072;28;20044;-74
2023/09/15 02:48:00;;;;;;;0.08;0.08;;;10.70;99.90;;;;;;5035797;28;20037;-74
2023/09/15 02:50:26;;;;;;;0.10;0.10;;;10.70;99.90;;;;;;5028103;28;20394;-73
2023/09/15 02:52:52;;;;;;;0.55;0.55;;;10.70;99.90;;;;;;5028058;28;20047;-74
2023/09/15 02:55:17;;;;;;;0.40;0.40;;;10.60;99.90;;;;;;5015189;28;20041;-73
2023/09/15 02:57:43;;;;;;;0.93;0.40;;;10.60;99.90;;;;;;5023226;28;20041;-73
2023/09/15 03:00:13;;;;;;;0.20;0.20;;;10.60;99.90;;;;;;5029222;28;20110;-73
2023/09/15 03:02:40;;;;;;;0.10;0.10;;;10.50;99.90;;;;;;5026449;28;20078;-73
2023/09/15 03:05:07;;;;;;;0.20;0.20;;;10.60;99.90;;;;;;5030404;28;20135;-73
2023/09/15 03:07:33;;;;;;;0.40;0.40;;;10.50;99.90;;;;;;5024052;28;20037;-73
2023/09/15 03:09:58;;;;;;;0.10;0.10;;;10.50;99.90;;;;;;5021031;28;20037;-73
2023/09/15 03:12:24;;;;;;;0.30;0.22;;;10.50;99.90;;;;;;5022661;28;20476;-74
2023/09/15 03:14:52;;;;;;;0.10;0.10;;;10.50;99.90;;;;;;5027639;28;20403;-73
2023/09/15 03:17:21;;;;;;;1.73;0.50;;;10.50;99.90;;;;;;5025592;28;20045;-73
2023/09/15 03:19:46;;;;;;;0.75;0.75;;;10.50;99.90;;;;;;5025173;28;20128;-73
2023/09/15 03:22:12;;;;;;;0.57;0.20;;;10.50;99.90;;;;;;5026444;28;20123;-73
2023/09/15 03:24:37;;;;;;;0.20;0.20;;;10.50;99.90;;;;;;5025902;28;20049;-73
2023/09/15 03:27:03;;;;;;;1.95;0.30;;;10.40;99.90;;;;;;5029698;28;20051;-73
2023/09/15 03:29:29;;;;;;;0.20;0.20;;;10.40;99.90;;;;;;5022053;28;20028;-73
2023/09/15 03:31:55;;;;;;;0.52;0.40;;;10.40;99.90;;;;;;5030981;28;20381;-73
2023/09/15 03:34:20;;;;;;;0.17;0.17;;;10.40;99.90;;;;;;5017370;28;20045;-74
2023/09/15 03:36:46;;;;;;;0.30;0.30;;;10.40;99.90;;;;;;5011483;28;20044;-73
2023/09/15 03:39:12;;;;;;;0.47;0.47;;;10.40;99.90;;;;;;5022582;28;20044;-73
2023/09/15 03:41:37;;;;;;;0.22;0.22;;;10.40;99.90;;;;;;5027699;28;20079;-73
2023/09/15 03:44:04;;;;;;;0.30;0.30;;;10.30;99.90;;;;;;5026035;28;20045;-73
2023/09/15 03:46:30;;;;;;;0.35;0.22;;;10.30;99.90;;;;;;5018152;28;20036;-73
2023/09/15 03:48:56;;;;;;;0.20;0.20;;;10.30;99.90;;;;;;5027945;28;20072;-73
2023/09/15 03:51:22;;;;;;;1.10;0.52;;;10.30;99.90;;;;;;5026138;28;20073;-73
2023/09/15 03:53:48;;;;;;;0.25;0.25;;;10.30;99.90;;;;;;5022392;28;20087;-73
2023/09/15 03:56:13;;;;;;;0.10;0.10;;;10.30;99.90;;;;;;5031573;28;20045;-73
2023/09/15 03:58:39;;;;;;;0.15;0.15;;;10.30;99.90;;;;;;5021126;28;20481;-73
2023/09/15 04:01:08;;;;;;;2.45;0.25;;;10.20;99.90;;;;;;5012399;28;20053;-73
2023/09/15 04:03:34;;;;;;;0.13;0.13;;;10.20;99.90;;;;;;5026493;28;20049;-73
2023/09/15 04:06:00;;;;;;;0.13;0.13;;;10.20;99.90;;;;;;5025823;28;20037;-73
2023/09/15 04:08:26;;;;;;;0.10;0.10;;;10.20;99.90;;;;;;5018822;28;20037;-73
2023/09/15 04:10:51;;;;;;;0.35;0.32;;;10.20;99.90;;;;;;5025241;28;20381;-73
2023/09/15 04:13:17;;;;;;;0.45;0.43;;;10.10;99.90;;;;;;5013332;28;20132;-73
2023/09/15 04:15:42;;;;;;;0.20;0.20;;;10.10;99.90;;;;;;5015218;28;20041;-73
2023/09/15 04:18:08;;;;;;;1.00;0.35;;;10.10;99.90;;;;;;5022584;28;20459;-73
2023/09/15 04:20:34;;;;;;;0.20;0.20;;;10.10;99.90;;;;;;5022332;28;20047;-73
2023/09/15 04:23:00;;;;;;;0.30;0.30;;;10.00;99.90;;;;;;5016981;28;20033;-73
2023/09/15 04:25:26;;;;;;;0.30;0.30;;;10.00;99.90;;;;;;5017111;28;20041;-73
2023/09/15 04:27:51;;;;;;;0.15;0.15;;;10.00;99.90;;;;;;5014652;28;20396;-73
2023/09/15 04:30:17;;;;;;;0.20;0.20;;;10.00;99.90;;;;;;5014700;28;20056;-73
2023/09/15 04:32:42;;;;;;;0.30;0.30;;;9.90;99.90;;;;;;5015442;28;20153;-73
2023/09/15 04:35:09;;;;;;;0.20;0.20;;;9.90;99.90;;;;;;5017992;28;20116;-73
2023/09/15 04:37:35;;;;;;;0.10;0.10;;;9.90;99.90;;;;;;5015268;28;20042;-73
2023/09/15 04:40:06;;;;;;;0.17;0.17;;;9.80;99.90;;;;;;5020881;28;20091;-72
2023/09/15 04:42:32;;;;;;;0.20;0.20;;;9.80;99.90;;;;;;5016826;28;20083;-73
2023/09/15 04:44:57;;;;;;;0.20;0.20;;;9.80;99.90;;;;;;5001904;28;20050;-74
2023/09/15 04:47:35;;;;;;;0.35;0.35;;;9.80;99.90;;;;;;5022149;28;20419;-75
2023/09/15 04:50:01;;;;;;;0.32;0.32;;;9.80;99.90;;;;;;5039698;28;20163;-75
2023/09/15 04:52:27;;;;;;;0.70;0.35;;;9.80;99.90;;;;;;5035164;28;20040;-74
2023/09/15 04:54:53;;;;;;;0.30;0.30;;;9.80;99.90;;;;;;5036707;28;20130;-74
2023/09/15 04:57:20;;;;;;;0.73;0.73;;;9.80;99.90;;;;;;5036850;28;20037;-75
2023/09/15 04:59:46;;;;;;;0.43;0.43;;;9.80;99.90;;;;;;5070469;28;20051;-75
2023/09/15 05:02:13;;;;;;;0.30;0.30;;;9.80;99.90;;;;;;5043847;28;20063;-75
2023/09/15 05:04:39;;;;;;;0.38;0.38;;;9.80;99.90;;;;;;5050786;28;20391;-75
2023/09/15 05:07:05;;;;;;;0.65;0.57;;;9.80;99.90;;;;;;5060692;28;20036;-75
2023/09/15 05:09:31;;;;;;;2.10;0.68;;;9.80;99.90;;;;;;5038140;28;20403;-75
2023/09/15 05:11:56;;;;;;;0.10;0.10;;;9.80;99.90;;;;;;5035705;28;20047;-75
2023/09/15 05:14:22;;;;;;;0.47;0.15;;;9.80;99.90;;;;;;5034556;28;20041;-74
2023/09/15 05:16:48;;;;;;;0.30;0.30;;;9.80;99.90;;;;;;5034099;28;20052;-75
2023/09/15 05:19:14;;;;;;;0.85;0.55;;;9.80;99.90;;;;;;5026010;28;20055;-74
2023/09/15 05:21:40;;;;;;;0.10;0.10;;;9.80;99.90;;;;;;5022851;28;20391;-75
2023/09/15 05:24:06;;;;;;;0.10;0.10;;;9.80;99.90;;;;;;5065945;28;20032;-74
2023/09/15 05:26:31;;;;;;;0.60;0.32;;;9.80;99.90;;;;;;5039478;28;20384;-74
2023/09/15 05:28:57;;;;;;;0.65;0.32;;;9.80;99.90;;;;;;5038425;28;20032;-74
2023/09/15 05:31:25;;;;;;;0.20;0.20;;;9.80;99.90;;;;;;5070192;28;20029;-74
2023/09/15 05:33:53;;;;;;;0.28;0.28;;;9.80;99.90;;;;;;5028140;28;20052;-74
2023/09/15 05:36:19;;;;;;;0.57;0.30;;;9.80;99.90;;;;;;5040672;28;20036;-74
2023/09/15 05:38:46;;;;;;;1.65;0.57;;;9.80;99.90;;;;;;5037493;28;20039;-74
2023/09/15 05:41:11;;;;;;;0.20;0.20;;;9.80;99.90;;;;;;5035261;28;20058;-75
2023/09/15 05:43:37;;;;;;;0.08;0.08;;;9.80;99.90;;;;;;5022759;28;20394;-74
2023/09/15 05:46:02;;;;;;;0.30;0.30;;;9.90;99.90;;;;;;5038418;28;20545;-75
2023/09/15 05:48:28;;;;;;;1.00;0.60;;;9.90;99.90;;;;;;5028017;28;20503;-79
2023/09/15 05:50:54;;;;;;;0.55;0.30;;;9.90;99.90;;;;;;5006638;28;20392;-80
2023/09/15 05:53:19;;;;;;;0.10;0.10;;;10.00;99.90;;;;;;5003348;28;20033;-77
2023/09/15 05:55:45;;;;;;;0.30;0.30;;;9.90;99.90;;;;;;5027107;28;20060;-79
2023/09/15 05:58:10;;;;;;;0.38;0.38;;;10.00;99.90;;;;;;5018015;28;20037;-81
2023/09/15 06:00:36;;;;;;;0.17;0.17;;;10.00;99.90;;;;;;5023424;28;20043;-81
2023/09/15 06:03:02;;;;;;;2.15;0.95;;;10.00;99.90;;;;;;5012001;28;20041;-81
2023/09/15 06:05:28;;;;;;;0.30;0.30;;;10.10;99.90;;;;;;5016694;28;20236;-81
2023/09/15 06:07:54;;;;;;;0.32;0.20;;;10.10;99.90;;;;;;5010860;28;20162;-81
2023/09/15 06:10:20;;;;;;;0.10;0.10;;;10.10;99.90;;;;;;5033943;28;20471;-81
2023/09/15 06:12:50;;;;;;;0.00;0.00;;;10.20;99.90;;;;;;4997015;28;20053;-81
2023/09/15 06:15:16;;;;;;;0.17;0.17;;;10.20;99.90;;;;;;5013912;28;20041;-82
2023/09/15 06:17:42;;;;;;;0.65;0.20;;;10.30;99.90;;;;;;5013615;28;20037;-81
2023/09/15 06:20:08;;;;;;;0.00;0.00;;;10.30;99.90;;;;;;5017158;28;20392;-82
2023/09/15 06:22:34;;;;;;;0.43;0.43;;;10.40;99.90;;;;;;5019585;28;20052;-82
2023/09/15 06:25:00;;;;;;;0.10;0.10;;;10.40;99.90;;;;;;5013607;28;20046;-81
2023/09/15 06:27:25;;;;;;;0.30;0.30;;;10.40;99.90;;;;;;5003853;28;20043;-81
2023/09/15 06:29:54;;;;;;;0.45;0.32;;;10.50;99.90;;;;;;5016512;28;20562;-80
2023/09/15 06:32:20;;;;;;;0.40;0.15;;;10.60;99.90;;;;;;5022173;28;20033;-81
2023/09/15 06:34:45;;;;;;;0.10;0.10;;;10.60;99.90;;;;;;5030294;28;20240;-80
2023/09/15 06:37:11;;;;;;;0.10;0.10;;;10.70;99.90;;;;;;5031506;28;20119;-80
2023/09/15 06:39:37;;;;;;;0.10;0.10;;;10.80;99.90;;;;;;5023167;28;20311;-80
2023/09/15 06:42:08;;;;;;;0.00;0.00;;;10.80;99.90;;;;;;5002008;28;20038;-74
2023/09/15 06:44:35;;;;;;;0.20;0.20;;;10.90;99.90;;;;;;5025295;28;20091;-74
2023/09/15 06:47:00;;;;;;;0.17;0.10;;;11.00;99.90;;;;;;5016887;28;20045;-74
2023/09/15 06:49:26;;;;;;;0.10;0.10;;;11.10;99.90;;;;;;5045716;28;20044;-75
2023/09/15 06:51:53;;;;;;;0.10;0.10;;;11.20;99.90;;;;;;5050872;28;20040;-75
2023/09/15 06:54:21;;;;;;;0.00;0.00;;;11.30;99.90;;;;;;5053987;28;20074;-75
2023/09/15 06:56:46;;;;;;;0.10;0.10;;;11.40;99.90;;;;;;5036416;28;20136;-76
2023/09/15 06:59:12;;;;;;;0.10;0.10;;;11.50;99.90;;;;;;5066044;28;20131;-76
2023/09/15 07:01:39;;;;;;;0.10;0.10;;;11.60;99.90;;;;;;5042389;28;20044;-76
2023/09/15 07:04:16;;;;;;;0.73;0.32;;;11.80;99.90;;;;;;5034414;28;20498;-75
2023/09/15 07:06:41;;;;;;;0.10;0.10;;;11.80;99.90;;;;;;5038403;28;20029;-76
2023/09/15 07:09:07;;;;;;;0.45;0.45;;;12.00;99.90;;;;;;5053489;28;20438;-76
2023/09/15 07:11:32;;;;;;;0.00;0.00;;;12.10;99.90;;;;;;5053501;28;20032;-76
2023/09/15 07:13:58;;;;;;;0.20;0.20;;;12.20;99.90;;;;;;5031297;28;20037;-76
2023/09/15 07:16:24;;;;;;;0.10;0.10;;;12.30;99.90;;;;;;5034372;28;20048;-75
2023/09/15 07:18:49;;;;;;;1.17;0.40;;;12.40;99.90;;;;;;5048676;28;20415;-76
2023/09/15 07:21:15;;;;;;;0.10;0.10;;;12.50;99.90;;;;;;5035145;28;20044;-76
2023/09/15 07:23:40;;;;;;;0.00;0.00;;;12.60;99.90;;;;;;5032499;28;20049;-77
2023/09/15 07:26:06;;;;;;;0.10;0.10;;;12.70;99.90;;;;;;5048758;28;20033;-76
2023/09/15 07:28:32;;;;;;;0.38;0.10;;;12.70;99.90;;;;;;5038865;28;20029;-77
2023/09/15 07:31:04;;;;;;;0.25;0.25;;;12.80;99.90;;;;;;5051386;28;20036;-76
2023/09/15 07:33:30;;;;;;;0.10;0.10;;;12.90;99.90;;;;;;5042503;28;20122;-76
2023/09/15 07:36:04;;;;;;;0.30;0.20;;;13.00;99.90;;;;;;5084282;28;20129;-76
2023/09/15 07:38:31;;;;;;;0.10;0.10;;;13.10;99.90;;;;;;5074472;28;20082;-75
2023/09/15 07:40:57;;;;;;;0.10;0.10;;;13.20;99.90;;;;;;5031713;28;20148;-75
2023/09/15 07:43:24;;;;;;;0.10;0.10;;;13.30;99.90;;;;;;5020861;28;20041;-76
2023/09/15 07:45:52;;;;;;;1.35;0.10;;;13.40;99.90;;;;;;5036637;28;20021;-77
2023/09/15 07:48:18;;;;;;;0.30;0.30;;;13.40;99.90;;;;;;5040357;28;20044;-75
2023/09/15 07:50:44;;;;;;;0.20;0.20;;;13.50;99.90;;;;;;5033857;28;20041;-77
2023/09/15 07:53:10;;;;;;;0.10;0.10;;;13.60;99.90;;;;;;5033902;28;20044;-76
2023/09/15 07:55:48;;;;;;;0.57;0.57;;;13.70;99.90;;;;;;5035103;28;20411;-76
2023/09/15 07:58:13;;;;;;;0.17;0.17;;;13.80;99.90;;;;;;5035186;28;20069;-77
2023/09/15 08:00:39;;;;;;;0.10;0.10;;;13.90;99.90;;;;;;5039145;28;20083;-76
2023/09/15 08:03:05;;;;;;;0.10;0.10;;;14.00;99.90;;;;;;5035445;28;20048;-76
2023/09/15 08:05:30;;;;;;;0.10;0.10;;;14.10;99.90;;;;;;5027137;28;20037;-75
2023/09/15 08:07:56;;;;;;;0.93;0.13;;;14.20;99.90;;;;;;5034498;28;20103;-76
2023/09/15 08:10:23;;;;;;;0.13;0.13;;;14.30;99.90;;;;;;5043872;28;20391;-76
2023/09/15 08:12:52;;;;;;;0.10;0.10;;;14.40;99.90;;;;;;5047871;28;20040;-76
2023/09/15 08:15:21;;;;;;;0.20;0.20;;;14.50;99.90;;;;;;5041525;28;20036;-77
2023/09/15 08:17:48;;;;;;;0.17;0.17;;;14.60;99.90;;;;;;5053127;28;20393;-76
2023/09/15 08:20:14;;;;;;;0.10;0.10;;;14.70;99.90;;;;;;5048979;28;20029;-74
2023/09/15 08:22:41;;;;;;;0.20;0.20;;;14.70;99.90;;;;;;5036303;28;20047;-75
2023/09/15 08:25:10;;;;;;;0.10;0.10;;;14.80;99.90;;;;;;5040532;28;20380;-75
2023/09/15 08:27:39;;;;;;;0.20;0.20;;;14.90;99.90;;;;;;5046355;28;20041;-75
2023/09/15 08:30:06;;;;;;;0.20;0.15;;;14.90;99.90;;;;;;5033947;28;20119;-76
2023/09/15 08:32:32;;;;;;;0.10;0.10;;;15.00;99.90;;;;;;5036318;28;20467;-76
2023/09/15 08:34:58;;;;;;;0.10;0.10;;;15.10;99.90;;;;;;5039900;28;20125;-76
2023/09/15 08:37:24;;;;;;;0.10;0.10;;;15.20;99.90;;;;;;5056631;28;20039;-75
2023/09/15 08:39:50;;;;;;;1.45;0.30;;;15.30;99.90;;;;;;5052087;28;20044;-75
2023/09/15 08:42:29;;;;;;;0.47;0.10;;;15.40;99.90;;;;;;5035498;28;20048;-76
2023/09/15 08:44:56;;;;;;;0.10;0.10;;;15.50;99.90;;;;;;5036433;28;20060;-76
2023/09/15 08:47:24;;;;;;;0.10;0.10;;;15.50;99.90;;;;;;5048795;28;20048;-76
2023/09/15 08:49:51;;;;;;;0.15;0.15;;;15.60;99.90;;;;;;5048043;28;20419;-77
2023/09/15 08:52:18;;;;;;;0.10;0.10;;;15.70;99.90;;;;;;5018836;28;20041;-76
2023/09/15 08:54:45;;;;;;;0.30;0.30;;;15.80;99.90;;;;;;5035058;28;20395;-76
2023/09/15 08:57:11;;;;;;;0.70;0.20;;;15.90;99.90;;;;;;5053172;28;20119;-76
2023/09/15 08:59:38;;;;;;;0.45;0.45;;;16.00;99.90;;;;;;5052776;28;20044;-74
2023/09/15 09:02:04;;;;;;;0.40;0.40;;;16.10;99.90;;;;;;5037207;28;20049;-76
2023/09/15 09:04:30;;;;;;;0.10;0.10;;;16.20;99.90;;;;;;5044972;28;20087;-76
2023/09/15 09:07:00;;;;;;;0.45;0.20;;;16.30;99.90;;;;;;5034562;28;20063;-74
2023/09/15 09:09:26;;;;;;;0.22;0.22;;;16.40;99.90;;;;;;5048369;28;20036;-74
2023/09/15 09:11:52;;;;;;;0.00;0.00;;;16.50;99.90;;;;;;5036202;28;20358;-75
2023/09/15 09:14:17;;;;;;;2.05;0.40;;;16.50;99.90;;;;;;5034696;28;20047;-76
2023/09/15 09:16:43;;;;;;;0.20;0.20;;;16.60;99.90;;;;;;5026625;28;20470;-74
2023/09/15 09:19:10;;;;;;;0.10;0.10;;;16.70;99.90;;;;;;5034141;28;20121;-76
2023/09/15 09:21:36;;;;;;;0.20;0.20;;;16.80;99.90;;;;;;5034494;28;20120;-75
2023/09/15 09:24:02;;;;;;;0.28;0.20;;;16.90;99.90;;;;;;5018781;28;20128;-75
2023/09/15 09:26:29;;;;;;;0.47;0.47;;;16.90;99.90;;;;;;5073430;28;20037;-76
2023/09/15 09:28:57;;;;;;;0.13;0.13;;;17.00;99.90;;;;;;5034478;28;20037;-75
2023/09/15 09:31:24;;;;;;;0.00;0.00;;;17.10;99.90;;;;;;5066679;28;20041;-75
2023/09/15 09:33:50;;;;;;;0.40;0.40;;;17.10;99.90;;;;;;5043855;28;20047;-73
2023/09/15 09:36:16;;;;;;;0.00;0.00;;;17.20;99.90;;;;;;5042512;28;20404;-74
2023/09/15 09:38:49;;;;;;;0.20;0.20;;;17.30;99.90;;;;;;5045456;28;20024;-74
2023/09/15 09:41:24;;;;;;;0.68;0.68;;;17.30;99.90;;;;;;5041535;28;20043;-74
2023/09/15 09:43:50;;;;;;;0.10;0.10;;;17.30;99.90;;;;;;5034395;28;20076;-75
2023/09/15 09:46:22;;;;;;;0.00;0.00;;;17.30;99.90;;;;;;5072339;28;20076;-74
2023/09/15 09:48:50;;;;;;;0.10;0.10;;;17.30;99.90;;;;;;5034705;28;20033;-76
2023/09/15 09:51:17;;;;;;;0.10;0.10;;;17.40;99.90;;;;;;5033888;28;20098;-74
2023/09/15 09:53:42;;;;;;;0.08;0.08;;;17.40;99.90;;;;;;5034051;28;20419;-75
2023/09/15 09:56:08;;;;;;;0.10;0.10;;;17.50;99.90;;;;;;5034198;28;20059;-74
2023/09/15 09:58:36;;;;;;;0.10;0.10;;;17.50;99.90;;;;;;5032311;28;20049;-75
2023/09/15 10:01:11;;;;;;;0.20;0.20;;;17.60;99.90;;;;;;5042457;28;20402;-75
2023/09/15 10:03:37;;;;;;;0.65;0.15;;;17.70;99.90;;;;;;5054686;28;20052;-75
2023/09/15 10:06:05;;;;;;;0.10;0.10;;;17.80;99.90;;;;;;5027190;28;20124;-75
2023/09/15 10:08:31;;;;;;;0.10;0.10;;;17.90;99.90;;;;;;5033731;28;20476;-74
2023/09/15 10:10:58;;;;;;;0.47;0.47;;;18.00;99.90;;;;;;5036518;28;20082;-75
2023/09/15 10:13:24;;;;;;;0.10;0.10;;;18.10;99.90;;;;;;5033643;28;20037;-75
2023/09/15 10:15:51;;;;;;;0.32;0.25;;;18.20;99.90;;;;;;5035003;28;20450;-74
2023/09/15 10:18:19;;;;;;;1.10;1.10;;;18.20;99.90;;;;;;5066976;28;20071;-75
2023/09/15 10:20:51;;;;;;;0.10;0.10;;;18.40;99.90;;;;;;5071041;28;20047;-73
2023/09/15 10:23:17;;;;;;;0.30;0.30;;;18.40;99.90;;;;;;5053024;28;20125;-74
2023/09/15 10:25:47;;;;;;;0.10;0.10;;;18.50;99.90;;;;;;5035037;28;20037;-73
2023/09/15 10:28:13;;;;;;;0.20;0.15;;;18.50;99.90;;;;;;5037259;28;20476;-74
2023/09/15 10:30:39;;;;;;;0.10;0.10;;;18.60;99.90;;;;;;5050668;28;20403;-73
2023/09/15 10:33:09;;;;;;;0.20;0.20;;;18.60;99.90;;;;;;5051428;28;20128;-74
2023/09/15 10:35:43;;;;;;;0.28;0.25;;;18.60;99.90;;;;;;5049919;28;20044;-75
2023/09/15 10:38:09;;;;;;;0.20;0.20;;;18.60;99.90;;;;;;5034649;28;20450;-73
2023/09/15 10:40:48;;;;;;;0.20;0.20;;;18.70;99.90;;;;;;5064969;28;20049;-73
2023/09/15 10:43:17;;;;;;;0.10;0.10;;;18.70;99.90;;;;;;5033406;28;20376;-73
2023/09/15 10:46:02;;;;;;;0.47;0.30;;;18.80;99.90;;;;;;5069960;28;20039;-73
2023/09/15 10:48:46;;;;;;;0.10;0.10;;;18.80;99.90;;;;;;5039409;28;20036;-74
2023/09/15 10:51:13;;;;;;;0.13;0.13;;;18.90;99.90;;;;;;5050866;28;20120;-71
2023/09/15 10:53:48;;;;;;;0.63;0.63;;;18.80;99.90;;;;;;5052440;28;20370;-74
2023/09/15 10:56:16;;;;;;;0.20;0.20;;;18.90;99.90;;;;;;5028767;28;20037;-74
2023/09/15 10:58:42;;;;;;;0.45;0.20;;;18.90;99.90;;;;;;5042362;28;20040;-74
2023/09/15 11:01:11;;;;;;;0.22;0.22;;;18.90;99.90;;;;;;5048074;28;20094;-73
2023/09/15 11:03:37;;;;;;;0.00;0.00;;;19.00;99.90;;;;;;5034585;28;20119;-75
2023/09/15 11:06:14;;;;;;;0.10;0.10;;;19.00;99.90;;;;;;5033361;28;20035;-75
2023/09/15 11:08:40;;;;;;;0.08;0.08;;;19.00;99.90;;;;;;5020591;28;20063;-74
2023/09/15 11:11:10;;;;;;;0.70;0.20;;;19.10;99.90;;;;;;5039348;28;20037;-76
2023/09/15 11:13:40;;;;;;;0.95;0.55;;;19.10;99.90;;;;;;5048920;28;20036;-75
2023/09/15 11:16:07;;;;;;;0.10;0.10;;;19.10;99.90;;;;;;5039085;28;20044;-75
2023/09/15 11:18:33;;;;;;;0.30;0.30;;;19.20;99.90;;;;;;5035501;28;20496;-75
2023/09/15 11:21:06;;;;;;;0.08;0.08;;;19.20;99.90;;;;;;5021090;28;20098;-73
2023/09/15 11:23:31;;;;;;;0.20;0.20;;;19.20;99.90;;;;;;5039661;28;20052;-73
2023/09/15 11:26:06;;;;;;;0.73;0.73;;;19.30;99.90;;;;;;5035107;28;20455;-73
2023/09/15 11:28:32;;;;;;;0.40;0.40;;;19.40;99.90;;;;;;5036030;28;20044;-75
2023/09/15 11:30:58;;;;;;;0.10;0.10;;;19.40;99.90;;;;;;5047948;28;20127;-75
2023/09/15 11:33:25;;;;;;;0.20;0.20;;;19.50;99.90;;;;;;5038206;28;20040;-75
2023/09/15 11:35:51;;;;;;;0.47;0.47;;;19.50;99.90;;;;;;5049207;28;20048;-75
2023/09/15 11:38:18;;;;;;;0.73;0.25;;;19.50;99.90;;;;;;5032909;28;20392;-74
2023/09/15 11:40:48;;;;;;;1.02;0.20;;;19.50;99.90;;;;;;5034667;28;20039;-73
2023/09/15 11:43:14;;;;;;;0.40;0.40;;;19.60;99.90;;;;;;5036514;28;20032;-74
2023/09/15 11:45:41;;;;;;;0.13;0.13;;;19.60;99.90;;;;;;5050740;28;20437;-75
2023/09/15 11:48:07;;;;;;;0.17;0.17;;;19.60;99.90;;;;;;5058387;28;20185;-75
2023/09/15 11:50:34;;;;;;;0.50;0.50;;;19.60;99.90;;;;;;5038391;28;20483;-75
2023/09/15 11:53:00;;;;;;;0.32;0.32;;;19.50;99.90;;;;;;5053882;28;20041;-77
2023/09/15 11:55:26;;;;;;;0.17;0.17;;;19.60;99.90;;;;;;5061734;28;20032;-74
2023/09/15 11:57:52;;;;;;;0.10;0.10;;;19.50;99.90;;;;;;5045326;28;20032;-73
2023/09/15 12:00:21;;;;;;;0.45;0.40;;;19.50;99.90;;;;;;5048234;28;20270;-75
2023/09/15 12:02:48;;;;;;;0.40;0.40;;;19.50;99.90;;;;;;5089773;28;20044;-74
2023/09/15 12:05:19;;;;;;;0.20;0.15;;;19.50;99.90;;;;;;5055076;28;20043;-75
2023/09/15 12:07:47;;;;;;;0.28;0.28;;;19.50;99.90;;;;;;5040718;28;20048;-77
2023/09/15 12:10:18;;;;;;;0.65;0.43;;;19.50;99.90;;;;;;5039485;28;20476;-75
2023/09/15 12:12:47;;;;;;;0.10;0.10;;;19.60;99.90;;;;;;5023123;28;20048;-74
2023/09/15 12:15:17;;;;;;;0.10;0.10;;;19.60;99.90;;;;;;5056890;28;20120;-75
2023/09/15 12:17:47;;;;;;;0.47;0.22;;;19.60;99.90;;;;;;5052183;28;20582;-75
2023/09/15 12:20:13;;;;;;;0.10;0.10;;;19.60;99.90;;;;;;5056315;28;20041;-74
2023/09/15 12:22:40;;;;;;;0.40;0.40;;;19.50;99.90;;;;;;5041399;28;20036;-74
2023/09/15 12:25:14;;;;;;;0.10;0.10;;;19.50;99.90;;;;;;5072343;28;20041;-75
2023/09/15 12:27:40;;;;;;;0.25;0.25;;;19.50;99.90;;;;;;5050471;28;20044;-76
2023/09/15 12:30:07;;;;;;;0.20;0.20;;;19.60;99.90;;;;;;5058777;28;20064;-74
2023/09/15 12:32:34;;;;;;;0.10;0.10;;;19.70;99.90;;;;;;5043592;28;20446;-75
2023/09/15 12:35:03;;;;;;;0.40;0.17;;;19.80;99.90;;;;;;5052421;28;20144;-75
2023/09/15 12:37:32;;;;;;;2.08;0.35;;;19.80;99.90;;;;;;5055148;28;20040;-75
2023/09/15 12:39:57;;;;;;;0.40;0.40;;;19.90;99.90;;;;;;5058925;28;20051;-77
2023/09/15 12:42:23;;;;;;;0.10;0.10;;;19.90;99.90;;;;;;5045553;28;20045;-75
2023/09/15 12:44:49;;;;;;;0.03;0.03;;;20.00;99.90;;;;;;5039191;28;20036;-74
2023/09/15 12:47:14;;;;;;;0.40;0.40;;;20.00;99.90;;;;;;5038243;28;20095;-76
2023/09/15 12:49:40;;;;;;;0.10;0.10;;;20.00;99.90;;;;;;5054894;28;20033;-75